North Norwich, New York
Current Conditions -  °F | °C
As of 5:35 AM on Saturday 01 Nov 2014 (Local Time) from KN03 Reporting Station
Overcast Overcast  
Wind Chill: 39°   Ceiling: 7500
Heat Index: 39°   Visibility: 10mi
Dew Point: 36°   Wind: 3mph
Humidity: 87%   Direction: 30°NNE
Pressure: 29.93"   Gusts: NA
Location:  42.62°N, 75.53°W
Report Text: KN03 010935Z AUTO 03003KT 10SM OVC075 04/02 A2993 RMK AO2
Loading
Personal Weather Stations






























Interactive Weather Map
Tropical Storm Tracking
New forecast layout! Learn more

10-Day Weather Forecast

Advertisements
Track Severe Weather on mobile